Impacts METAR Board INFO
IDs:

KMDW - Chicago/Midway Intl, IL, US

Updated at: 0827 UTC 12 Dec 2017
Potential Impact None Slight Moderate High
Time11/20Z 11/21Z 11/22Z 11/23Z 12/00Z 12/01Z 12/02Z 12/03Z 12/04Z 12/05Z 12/06Z 12/07Z 12/08Z
VIS10 10 10 10 0.75 4 8 9 9 8 10 10 10
CIG150 120 120 160 11 6 46 17 18 21 33 39 44
CoverOVCOVCOVCOVCOVXOVCOVCOVCOVCOVCOVCOVCBKN
FltCatVFRVFRVFRVFRLIFRIFRVFRMVFRMVFRMVFRVFRVFRVFR
WX---------SN BR-SN BR---------SN-SN-SN
WDir12014030360330320340330340340330340350
WSpd7 4 3 5 6 8 10 19 16 14 15 19 16
WGst-- -- -- -- -- -- -- -- -- 30 -- 25 28
Raw hourly METARs
KMDW 111953Z 12007KT 10SM SCT085 BKN150 OVC250 04/M03 A2967 RMK AO2 SLP059 T00391033
KMDW 112053Z 14004KT 10SM SCT085 BKN120 OVC250 04/M03 A2967 RMK AO2 SLP058 T00391033 56027
KMDW 112153Z 03003KT 10SM FEW085 BKN120 OVC150 03/M03 A2969 RMK AO2 SLP066 T00331028
KMDW 112253Z 36005KT 10SM FEW075 SCT100 OVC160 03/M03 A2972 RMK AO2 SLP073 T00331028
KMDW 120004Z 33006KT 3/4SM R31C/P6000FT -SN BR VV011 01/00 A2975 RMK AO2 P0001 T00060000
KMDW 120053Z 32008KT 4SM -SN BR BKN006 BKN032 OVC055 01/01 A2977 RMK AO2 SLP091 SNINCR 1/1 P0003 T00110006
KMDW 120153Z 34010KT 8SM BKN046 OVC070 01/M01 A2978 RMK AO2 SNE21 SLP096 P0000 T00111006
KMDW 120253Z 33019KT 9SM BKN017 BKN030 OVC037 01/M02 A2982 RMK AO2 SLP109 60003 T00061017 53018
KMDW 120353Z 34016KT 9SM OVC018 01/M02 A2986 RMK AO2 PK WND 34027/0333 SNB37E46 SLP122 P0000 T00061022
KMDW 120453Z 34014G30KT 8SM OVC021 00/M03 A2988 RMK AO2 PK WND 36030/0444 SLP130 T00001033
KMDW 120553Z 33015KT 10SM -SN SCT025 OVC033 00/M04 A2990 RMK AO2 SNB53 SLP137 P0000 60003 T00001044 10011 20000 400441033 51028
KMDW 120653Z 34019G25KT 10SM -SN FEW029 OVC039 M01/M06 A2993 RMK AO2 PK WND 34026/0643 SLP144 P0000 T10061056
KMDW 120753Z 35016G28KT 10SM -SN BKN044 M03/M11 A2997 RMK AO2 PK WND 33033/0713 SLP161 P0000 T10331106